createdAt,value
2022-12-03T00:00:13.621Z,1025.69
2022-12-03T00:01:13.503Z,1025.74
2022-12-03T00:02:13.790Z,1025.73
2022-12-03T00:03:14.033Z,1025.68
2022-12-03T00:04:14.043Z,1025.71
2022-12-03T00:05:14.205Z,1025.70
2022-12-03T00:06:14.364Z,1025.69
2022-12-03T00:07:14.543Z,1025.68
2022-12-03T00:08:14.793Z,1025.68
2022-12-03T00:09:14.862Z,1025.64
2022-12-03T00:10:15.040Z,1025.66
2022-12-03T00:11:15.199Z,1025.67
2022-12-03T00:12:15.358Z,1025.67
2022-12-03T00:13:15.529Z,1025.69
2022-12-03T00:14:15.705Z,1025.67
2022-12-03T00:15:15.867Z,1025.67
2022-12-03T00:16:16.062Z,1025.65
2022-12-03T00:17:16.178Z,1025.68
2022-12-03T00:18:16.368Z,1025.67
2022-12-03T00:19:16.519Z,1025.65
2022-12-03T00:20:16.703Z,1025.62
2022-12-03T00:21:16.859Z,1025.59
2022-12-03T00:22:17.021Z,1025.64
2022-12-03T00:23:17.229Z,1025.65
2022-12-03T00:24:17.353Z,1025.63
2022-12-03T00:25:17.505Z,1025.63
2022-12-03T00:26:17.675Z,1025.62
2022-12-03T00:27:17.831Z,1025.61
2022-12-03T00:28:18.014Z,1025.68
2022-12-03T00:29:18.172Z,1025.66
2022-12-03T00:30:18.341Z,1025.68
2022-12-03T00:31:18.615Z,1025.65
2022-12-03T00:32:18.680Z,1025.69
2022-12-03T00:33:18.873Z,1025.65
2022-12-03T00:34:19.049Z,1025.63
2022-12-03T00:35:19.227Z,1025.66
2022-12-03T00:36:19.389Z,1025.66
2022-12-03T00:37:19.557Z,1025.62
2022-12-03T00:38:19.753Z,1025.69
2022-12-03T00:39:19.902Z,1025.65
2022-12-03T00:40:20.098Z,1025.61
2022-12-03T00:41:20.241Z,1025.64
2022-12-03T00:42:20.406Z,1025.64
2022-12-03T00:43:20.607Z,1025.60
2022-12-03T00:44:20.775Z,1025.64
2022-12-03T00:45:20.949Z,1025.61
2022-12-03T00:46:21.551Z,1025.59
2022-12-03T00:47:21.278Z,1025.62
2022-12-03T00:48:21.436Z,1025.57
2022-12-03T00:49:21.645Z,1025.62
2022-12-03T00:50:21.794Z,1025.56
2022-12-03T00:51:21.964Z,1025.62
2022-12-03T00:52:22.106Z,1025.59
2022-12-03T00:53:22.269Z,1025.53
2022-12-03T00:54:26.812Z,1025.58
2022-12-03T00:55:23.603Z,1025.58
2022-12-03T00:56:22.803Z,1025.56
2022-12-03T00:57:22.954Z,1025.62
2022-12-03T00:58:23.131Z,1025.62
2022-12-03T00:59:23.286Z,1025.57
2022-12-03T01:00:23.448Z,1025.60
2022-12-03T01:01:23.661Z,1025.58
2022-12-03T01:02:23.871Z,1025.57
2022-12-03T01:03:23.947Z,1025.57
2022-12-03T01:04:24.204Z,1025.58
2022-12-03T01:05:24.287Z,1025.60
2022-12-03T01:06:24.457Z,1025.59
2022-12-03T01:07:24.677Z,1025.55
2022-12-03T01:08:24.797Z,1025.62
2022-12-03T01:09:24.986Z,1025.58
2022-12-03T01:10:25.147Z,1025.58
2022-12-03T01:11:25.308Z,1025.62
2022-12-03T01:12:25.479Z,1025.59
2022-12-03T01:13:25.638Z,1025.65
2022-12-03T01:14:25.828Z,1025.64
2022-12-03T01:15:25.968Z,1025.61
2022-12-03T01:16:26.188Z,1025.62
2022-12-03T01:17:26.351Z,1025.68
2022-12-03T01:18:26.481Z,1025.65
2022-12-03T01:19:26.631Z,1025.63
2022-12-03T01:20:26.799Z,1025.64
2022-12-03T01:21:26.968Z,1025.65
2022-12-03T01:22:27.172Z,1025.61
2022-12-03T01:23:27.290Z,1025.62
2022-12-03T01:24:27.471Z,1025.60
2022-12-03T01:25:27.622Z,1025.59
2022-12-03T01:26:27.790Z,1025.61
2022-12-03T01:27:27.980Z,1025.57
2022-12-03T01:28:28.155Z,1025.60
2022-12-03T01:29:28.304Z,1025.55
2022-12-03T01:30:28.471Z,1025.60
2022-12-03T01:31:28.697Z,1025.62
2022-12-03T01:32:28.837Z,1025.62
2022-12-03T01:33:28.991Z,1025.58
2022-12-03T01:34:29.160Z,1025.59
2022-12-03T01:35:29.324Z,1025.59
2022-12-03T01:36:29.506Z,1025.63
2022-12-03T01:37:29.677Z,1025.57
2022-12-03T01:38:29.882Z,1025.57
2022-12-03T01:39:30.007Z,1025.60
2022-12-03T01:40:30.168Z,1025.63
2022-12-03T01:41:30.331Z,1025.60
2022-12-03T01:42:30.505Z,1025.59
2022-12-03T01:43:30.698Z,1025.59
2022-12-03T01:44:30.823Z,1025.60
2022-12-03T01:45:30.999Z,1025.58
2022-12-03T01:46:31.251Z,1025.57
2022-12-03T01:47:31.324Z,1025.57
2022-12-03T01:48:31.519Z,1025.56
2022-12-03T01:49:31.673Z,1025.55
2022-12-03T01:50:31.840Z,1025.54
2022-12-03T01:51:32.005Z,1025.54
2022-12-03T01:52:32.176Z,1025.54
2022-12-03T01:53:32.362Z,1025.53
2022-12-03T01:54:32.524Z,1025.55
2022-12-03T01:55:32.690Z,1025.55
2022-12-03T01:56:32.846Z,1025.54
2022-12-03T01:57:33.012Z,1025.49
2022-12-03T01:58:33.226Z,1025.51
2022-12-03T01:59:33.336Z,1025.54
2022-12-03T02:00:33.507Z,1025.56
2022-12-03T02:01:33.710Z,1025.57
2022-12-03T02:02:33.844Z,1025.52
2022-12-03T02:03:34.065Z,1025.54
2022-12-03T02:04:34.169Z,1025.56
2022-12-03T02:05:34.332Z,1025.53
2022-12-03T02:06:34.506Z,1025.51
2022-12-03T02:07:34.730Z,1025.50
2022-12-03T02:08:34.888Z,1025.50
2022-12-03T02:09:35.007Z,1025.52
2022-12-03T02:10:35.182Z,1025.55
2022-12-03T02:11:35.336Z,1025.55
2022-12-03T02:12:35.498Z,1025.52
2022-12-03T02:13:35.697Z,1025.49
2022-12-03T02:14:35.859Z,1025.50
2022-12-03T02:15:36.023Z,1025.47
2022-12-03T02:16:36.258Z,1025.49
2022-12-03T02:17:36.354Z,1025.51
2022-12-03T02:18:36.541Z,1025.49
2022-12-03T02:19:36.709Z,1025.46
2022-12-03T02:20:36.867Z,1025.54
2022-12-03T02:21:37.029Z,1025.47
2022-12-03T02:22:37.201Z,1025.47
2022-12-03T02:23:37.378Z,1025.49
2022-12-03T02:24:37.550Z,1025.46
2022-12-03T02:25:37.702Z,1025.48
2022-12-03T02:26:37.874Z,1025.44
2022-12-03T02:27:38.040Z,1025.54
2022-12-03T02:28:38.212Z,1025.51
2022-12-03T02:29:38.382Z,1025.49
2022-12-03T02:30:38.531Z,1025.50
2022-12-03T02:31:38.771Z,1025.55
2022-12-03T02:32:38.882Z,1025.54
2022-12-03T02:33:39.035Z,1025.48
2022-12-03T02:34:39.222Z,1025.49
2022-12-03T02:35:39.407Z,1025.54
2022-12-03T02:36:39.593Z,1025.54
2022-12-03T02:37:39.743Z,1025.51
2022-12-03T02:38:39.913Z,1025.52
2022-12-03T02:39:40.111Z,1025.48
2022-12-03T02:40:40.243Z,1025.50
2022-12-03T02:41:40.401Z,1025.54
2022-12-03T02:42:40.562Z,1025.52
2022-12-03T02:43:40.734Z,1025.46
2022-12-03T02:44:40.913Z,1025.49
2022-12-03T02:45:41.073Z,1025.50
2022-12-03T02:46:41.273Z,1025.50
2022-12-03T02:47:41.402Z,1025.53
2022-12-03T02:48:41.608Z,1025.52
2022-12-03T02:49:41.764Z,1025.52
2022-12-03T02:50:41.925Z,1025.48
2022-12-03T02:51:42.077Z,1025.48
2022-12-03T02:52:42.253Z,1025.49
2022-12-03T02:53:42.499Z,1025.56
2022-12-03T02:54:42.587Z,1025.52
2022-12-03T02:55:42.743Z,1025.50
2022-12-03T02:56:42.916Z,1025.48
2022-12-03T02:57:43.081Z,1025.49
2022-12-03T02:58:43.287Z,1025.49
2022-12-03T02:59:43.415Z,1025.45
2022-12-03T03:00:43.758Z,1025.51
2022-12-03T03:01:43.777Z,1025.49
2022-12-03T03:02:43.990Z,1025.57
2022-12-03T03:03:44.098Z,1025.55
2022-12-03T03:04:44.256Z,1025.48
2022-12-03T03:05:44.419Z,1025.54
2022-12-03T03:06:44.596Z,1025.52
2022-12-03T03:07:44.848Z,1025.52
2022-12-03T03:08:44.924Z,1025.51
2022-12-03T03:09:45.087Z,1025.49
2022-12-03T03:10:45.256Z,1025.49
2022-12-03T03:11:45.419Z,1025.56
2022-12-03T03:12:45.611Z,1025.49
2022-12-03T03:13:45.759Z,1025.53
2022-12-03T03:14:45.929Z,1025.44
2022-12-03T03:15:46.093Z,1025.47
2022-12-03T03:16:46.310Z,1025.43
2022-12-03T03:17:46.448Z,1025.49
2022-12-03T03:18:46.632Z,1025.43
2022-12-03T03:19:46.759Z,1025.50
2022-12-03T03:20:46.931Z,1025.42
2022-12-03T03:21:47.090Z,1025.46
2022-12-03T03:22:47.280Z,1025.51
2022-12-03T03:23:47.440Z,1025.45
2022-12-03T03:24:47.610Z,1025.42
2022-12-03T03:25:47.771Z,1025.42
2022-12-03T03:26:47.951Z,1025.36
2022-12-03T03:27:48.110Z,1025.36
2022-12-03T03:28:48.270Z,1025.35
2022-12-03T03:29:48.431Z,1025.34
2022-12-03T03:30:48.611Z,1025.35
2022-12-03T03:31:48.812Z,1025.32
2022-12-03T03:32:48.962Z,1025.33
2022-12-03T03:33:56.134Z,1025.38
2022-12-03T03:34:49.302Z,1025.29
2022-12-03T03:35:49.465Z,1025.30
2022-12-03T03:36:49.626Z,1025.30
2022-12-03T03:37:49.810Z,1025.33
2022-12-03T03:38:49.965Z,1025.30
2022-12-03T03:39:50.127Z,1025.31
2022-12-03T03:40:50.303Z,1025.30
2022-12-03T03:41:50.457Z,1025.30
2022-12-03T03:42:50.667Z,1025.33
2022-12-03T03:43:50.787Z,1025.27
2022-12-03T03:44:51.186Z,1025.25
2022-12-03T03:45:51.181Z,1025.26
2022-12-03T03:46:51.302Z,1025.30
2022-12-03T03:47:51.488Z,1025.25
2022-12-03T03:48:51.648Z,1025.26
2022-12-03T03:49:51.810Z,1025.20
2022-12-03T03:50:51.979Z,1025.24
2022-12-03T03:51:52.149Z,1025.25
2022-12-03T03:52:52.333Z,1025.22
2022-12-03T03:53:52.480Z,1025.23
2022-12-03T03:54:52.967Z,1025.22
2022-12-03T03:55:52.809Z,1025.20
2022-12-03T03:56:52.986Z,1025.22
2022-12-03T03:57:53.143Z,1025.20
2022-12-03T03:58:53.301Z,1025.17
2022-12-03T03:59:53.464Z,1025.19
2022-12-03T04:00:53.705Z,1025.20
2022-12-03T04:01:53.792Z,1025.15
2022-12-03T04:02:53.983Z,1025.14
2022-12-03T04:03:54.181Z,1025.10
2022-12-03T04:04:54.500Z,1025.10
2022-12-03T04:05:54.473Z,1025.13
2022-12-03T04:06:54.641Z,1025.11
2022-12-03T04:07:54.921Z,1025.08
2022-12-03T04:08:54.986Z,1025.04
2022-12-03T04:09:55.135Z,1025.08
2022-12-03T04:10:55.311Z,1025.05
2022-12-03T04:11:55.466Z,1025.04
2022-12-03T04:12:55.654Z,1025.04
2022-12-03T04:13:55.811Z,1025.09
2022-12-03T04:14:56.158Z,1025.08
2022-12-03T04:15:56.142Z,1025.03
2022-12-03T04:16:56.370Z,1025.03
2022-12-03T04:17:56.513Z,1025.05
2022-12-03T04:18:56.677Z,1025.01
2022-12-03T04:19:56.852Z,1025.05
2022-12-03T04:20:57.015Z,1025.01
2022-12-03T04:21:57.187Z,1025.00
2022-12-03T04:22:57.333Z,1025.00
2022-12-03T04:23:57.504Z,1025.03
2022-12-03T04:24:57.693Z,1025.03
2022-12-03T04:25:57.868Z,1025.00
2022-12-03T04:26:58.015Z,1024.99
2022-12-03T04:27:58.193Z,1024.96
2022-12-03T04:28:58.344Z,1024.99
2022-12-03T04:29:58.524Z,1024.97
2022-12-03T04:30:58.779Z,1024.96
2022-12-03T04:31:58.855Z,1024.97
2022-12-03T04:32:59.005Z,1025.02
2022-12-03T04:33:59.226Z,1025.00
2022-12-03T04:34:59.346Z,1024.99
2022-12-03T04:35:59.585Z,1024.96
2022-12-03T04:36:59.705Z,1024.97
2022-12-03T04:37:59.883Z,1024.98
2022-12-03T04:39:00.055Z,1025.01
2022-12-03T04:40:00.215Z,1024.98
2022-12-03T04:41:00.387Z,1024.95
2022-12-03T04:42:00.556Z,1024.89
2022-12-03T04:43:00.716Z,1025.02
2022-12-03T04:44:00.887Z,1025.00
2022-12-03T04:45:01.041Z,1024.98
2022-12-03T04:46:01.289Z,1025.06
2022-12-03T04:47:01.393Z,1024.98
2022-12-03T04:48:01.552Z,1025.04
2022-12-03T04:49:01.711Z,1025.00
2022-12-03T04:50:01.886Z,1025.03
2022-12-03T04:51:02.037Z,1025.00
2022-12-03T04:52:02.231Z,1025.03
2022-12-03T04:53:02.377Z,1024.97
2022-12-03T04:54:02.542Z,1024.97
2022-12-03T04:55:02.733Z,1024.97
2022-12-03T04:56:02.882Z,1024.95
2022-12-03T04:57:03.049Z,1024.92
2022-12-03T04:58:03.220Z,1024.90
2022-12-03T04:59:03.381Z,1024.90
2022-12-03T05:00:03.573Z,1024.87
2022-12-03T05:01:03.802Z,1024.88
2022-12-03T05:02:03.969Z,1024.84
2022-12-03T05:03:04.125Z,1024.89
2022-12-03T05:04:04.278Z,1024.88
2022-12-03T05:05:04.432Z,1024.86
2022-12-03T05:06:04.616Z,1024.85
2022-12-03T05:07:04.771Z,1024.85
2022-12-03T05:08:05.005Z,1024.80
2022-12-03T05:09:05.085Z,1024.83
2022-12-03T05:10:05.271Z,1024.82
2022-12-03T05:11:05.439Z,1024.81
2022-12-03T05:12:05.606Z,1024.80
2022-12-03T05:13:05.781Z,1024.81
2022-12-03T05:14:05.952Z,1024.77
2022-12-03T05:15:06.113Z,1024.79
2022-12-03T05:16:06.271Z,1024.79
2022-12-03T05:17:06.550Z,1024.81
2022-12-03T05:18:06.611Z,1024.77
2022-12-03T05:19:06.769Z,1024.80
2022-12-03T05:20:06.953Z,1024.79
2022-12-03T05:21:07.114Z,1024.80
2022-12-03T05:22:07.292Z,1024.80
2022-12-03T05:23:07.452Z,1024.79
2022-12-03T05:24:07.621Z,1024.79
2022-12-03T05:25:07.792Z,1024.80
2022-12-03T05:26:07.961Z,1024.82
2022-12-03T05:27:08.154Z,1024.80
2022-12-03T05:28:08.324Z,1024.84
2022-12-03T05:29:08.474Z,1024.82
2022-12-03T05:30:08.654Z,1024.81
2022-12-03T05:31:08.864Z,1024.81
2022-12-03T05:32:09.024Z,1024.80
2022-12-03T05:33:09.185Z,1024.79
2022-12-03T05:34:09.356Z,1024.78
2022-12-03T05:35:09.518Z,1024.80
2022-12-03T05:36:09.694Z,1024.82
2022-12-03T05:37:09.861Z,1024.79
2022-12-03T05:38:10.036Z,1024.77
2022-12-03T05:39:10.193Z,1024.82
2022-12-03T05:40:10.360Z,1024.78
2022-12-03T05:41:10.535Z,1024.80
2022-12-03T05:42:10.699Z,1024.79
2022-12-03T05:43:10.855Z,1024.75
2022-12-03T05:44:12.432Z,1024.77
2022-12-03T05:45:11.208Z,1024.79
2022-12-03T05:46:11.472Z,1024.76
2022-12-03T05:47:11.547Z,1024.75
2022-12-03T05:48:11.715Z,1024.77
2022-12-03T05:49:11.872Z,1024.76
2022-12-03T05:50:12.040Z,1024.75
2022-12-03T05:51:12.220Z,1024.77
2022-12-03T05:52:12.381Z,1024.73
2022-12-03T05:53:12.540Z,1024.73
2022-12-03T05:54:12.758Z,1024.73
2022-12-03T05:55:12.883Z,1024.74
2022-12-03T05:56:13.047Z,1024.73
2022-12-03T05:57:13.210Z,1024.74
2022-12-03T05:58:13.382Z,1024.72
2022-12-03T05:59:13.551Z,1024.74
2022-12-03T06:00:13.711Z,1024.74
2022-12-03T06:01:13.883Z,1024.69
2022-12-03T06:02:14.163Z,1024.72
2022-12-03T06:03:14.349Z,1024.69
2022-12-03T06:04:14.398Z,1024.69
2022-12-03T06:05:14.560Z,1024.70
2022-12-03T06:06:14.745Z,1024.74
2022-12-03T06:07:14.899Z,1024.71
2022-12-03T06:08:15.113Z,1024.66
2022-12-03T06:09:15.250Z,1024.72
2022-12-03T06:10:15.410Z,1024.74
2022-12-03T06:11:15.604Z,1024.71
2022-12-03T06:12:15.770Z,1024.70
2022-12-03T06:13:15.924Z,1024.73
2022-12-03T06:14:16.096Z,1024.72
2022-12-03T06:15:16.253Z,1024.73
2022-12-03T06:16:16.486Z,1024.70
2022-12-03T06:17:16.604Z,1024.71
2022-12-03T06:18:16.775Z,1024.72
2022-12-03T06:19:16.932Z,1024.74
2022-12-03T06:20:17.110Z,1024.72
2022-12-03T06:21:17.312Z,1024.74
2022-12-03T06:22:17.442Z,1024.74
2022-12-03T06:23:17.596Z,1024.75
2022-12-03T06:24:17.770Z,1024.71
2022-12-03T06:25:17.929Z,1024.71
2022-12-03T06:26:18.111Z,1024.72
2022-12-03T06:27:18.266Z,1024.72
2022-12-03T06:28:18.439Z,1024.70
2022-12-03T06:29:18.594Z,1024.68
2022-12-03T06:30:18.762Z,1024.69
2022-12-03T06:31:19.012Z,1024.72
2022-12-03T06:32:19.129Z,1024.64
2022-12-03T06:33:19.283Z,1024.61
2022-12-03T06:34:19.463Z,1024.65
2022-12-03T06:35:19.614Z,1024.65
2022-12-03T06:36:23.021Z,1024.65
2022-12-03T06:37:19.970Z,1024.68
2022-12-03T06:38:20.113Z,1024.67
2022-12-03T06:39:20.279Z,1024.70
2022-12-03T06:40:20.450Z,1024.70
2022-12-03T06:41:20.616Z,1024.68
2022-12-03T06:42:20.800Z,1024.69
2022-12-03T06:43:20.954Z,1024.72
2022-12-03T06:44:21.129Z,1024.66
2022-12-03T06:45:21.286Z,1024.66
2022-12-03T06:46:21.516Z,1024.64
2022-12-03T06:47:21.666Z,1024.67
2022-12-03T06:48:21.832Z,1024.66
2022-12-03T06:49:21.994Z,1024.64
2022-12-03T06:50:22.160Z,1024.63
2022-12-03T06:51:22.322Z,1024.59
2022-12-03T06:52:22.509Z,1024.65
2022-12-03T06:53:22.662Z,1024.60
2022-12-03T06:54:22.837Z,1024.62
2022-12-03T06:55:22.995Z,1024.64
2022-12-03T06:56:23.167Z,1024.61
2022-12-03T06:57:23.342Z,1024.64
2022-12-03T06:58:23.506Z,1024.64
2022-12-03T06:59:23.660Z,1024.64
2022-12-03T07:00:23.827Z,1024.67
2022-12-03T07:01:24.057Z,1024.64
2022-12-03T07:02:24.219Z,1024.64
2022-12-03T07:03:24.428Z,1024.66
2022-12-03T07:04:24.528Z,1024.64
2022-12-03T07:05:24.711Z,1024.67
2022-12-03T07:06:24.876Z,1024.65
2022-12-03T07:07:25.087Z,1024.66
2022-12-03T07:08:25.220Z,1024.66
2022-12-03T07:09:25.390Z,1024.71
2022-12-03T07:10:25.550Z,1024.69
2022-12-03T07:11:25.711Z,1024.69
2022-12-03T07:12:25.896Z,1024.65
2022-12-03T07:13:26.050Z,1024.68
2022-12-03T07:14:26.252Z,1024.69
2022-12-03T07:15:26.410Z,1024.69
2022-12-03T07:16:26.666Z,1024.72
2022-12-03T07:17:26.786Z,1024.65
2022-12-03T07:18:26.961Z,1024.68
2022-12-03T07:19:32.321Z,1024.70
2022-12-03T07:20:28.329Z,1024.67
2022-12-03T07:21:27.482Z,1024.70
2022-12-03T07:22:27.672Z,1024.71
2022-12-03T07:23:27.829Z,1024.73
2022-12-03T07:24:28.010Z,1024.71
2022-12-03T07:25:28.185Z,1024.71
2022-12-03T07:26:28.369Z,1024.69
2022-12-03T07:27:28.562Z,1024.73
2022-12-03T07:28:28.712Z,1024.71
2022-12-03T07:29:28.892Z,1024.68
2022-12-03T07:30:29.187Z,1024.67
2022-12-03T07:31:29.342Z,1024.67
2022-12-03T07:32:29.417Z,1024.66
2022-12-03T07:33:29.594Z,1024.67
2022-12-03T07:34:29.903Z,1024.66
2022-12-03T07:35:29.946Z,1024.68
2022-12-03T07:36:30.138Z,1024.67
2022-12-03T07:37:30.279Z,1024.67
2022-12-03T07:38:30.488Z,1024.68
2022-12-03T07:39:30.628Z,1024.64
2022-12-03T07:40:30.810Z,1024.65
2022-12-03T07:41:30.996Z,1024.64
2022-12-03T07:42:31.176Z,1024.64
2022-12-03T07:43:31.567Z,1024.67
2022-12-03T07:44:31.515Z,1024.70
2022-12-03T07:45:31.694Z,1024.68
2022-12-03T07:46:31.958Z,1024.71
2022-12-03T07:47:32.046Z,1024.69
2022-12-03T07:48:32.229Z,1024.65
2022-12-03T07:49:32.410Z,1024.67
2022-12-03T07:50:32.597Z,1024.67
2022-12-03T07:51:32.730Z,1024.69
2022-12-03T07:52:32.926Z,1024.64
2022-12-03T07:53:33.102Z,1024.66
2022-12-03T07:54:33.297Z,1024.66
2022-12-03T07:55:33.440Z,1024.65
2022-12-03T07:56:33.624Z,1024.66
2022-12-03T07:57:33.799Z,1024.62
2022-12-03T07:58:33.988Z,1024.69
2022-12-03T07:59:34.135Z,1024.69
2022-12-03T08:00:34.355Z,1024.63
2022-12-03T08:01:34.647Z,1024.64
2022-12-03T08:02:34.708Z,1024.64
2022-12-03T08:03:34.848Z,1024.66
2022-12-03T08:04:34.989Z,1024.60
2022-12-03T08:05:35.169Z,1024.60
2022-12-03T08:06:35.341Z,1024.59
2022-12-03T08:07:35.560Z,1024.58
2022-12-03T08:08:35.710Z,1024.54
2022-12-03T08:09:35.892Z,1024.51
2022-12-03T08:10:36.069Z,1024.53
2022-12-03T08:11:36.250Z,1024.53
2022-12-03T08:12:36.423Z,1024.52
2022-12-03T08:13:36.609Z,1024.52
2022-12-03T08:14:36.795Z,1024.50
2022-12-03T08:15:39.476Z,1024.52
2022-12-03T08:16:37.154Z,1024.52
2022-12-03T08:17:37.301Z,1024.53
2022-12-03T08:18:37.498Z,1024.51
2022-12-03T08:19:37.644Z,1024.50
2022-12-03T08:20:37.828Z,1024.45
2022-12-03T08:21:38.009Z,1024.47
2022-12-03T08:22:38.205Z,1024.45
2022-12-03T08:23:38.381Z,1024.44
2022-12-03T08:24:38.526Z,1024.46
2022-12-03T08:25:38.695Z,1024.46
2022-12-03T08:26:38.873Z,1024.42
2022-12-03T08:27:39.042Z,1024.46
2022-12-03T08:28:39.252Z,1024.47
2022-12-03T08:29:39.386Z,1024.44
2022-12-03T08:30:39.567Z,1024.43
2022-12-03T08:31:39.817Z,1024.46
2022-12-03T08:32:39.918Z,1024.41
2022-12-03T08:33:40.132Z,1024.41
2022-12-03T08:34:40.275Z,1024.39
2022-12-03T08:35:40.457Z,1024.41
2022-12-03T08:36:40.632Z,1024.41
2022-12-03T08:37:40.814Z,1024.38
2022-12-03T08:38:41.007Z,1024.43
2022-12-03T08:39:41.164Z,1024.42
2022-12-03T08:40:41.336Z,1024.42
2022-12-03T08:41:41.523Z,1024.44
2022-12-03T08:42:41.716Z,1024.42
2022-12-03T08:43:41.907Z,1024.45
2022-12-03T08:44:42.052Z,1024.45
2022-12-03T08:45:42.303Z,1024.47
2022-12-03T08:46:42.405Z,1024.46
2022-12-03T08:47:42.620Z,1024.47
2022-12-03T08:48:47.079Z,1024.47
2022-12-03T08:49:43.950Z,1024.44
2022-12-03T08:50:43.135Z,1024.44
2022-12-03T08:51:43.300Z,1024.46
2022-12-03T08:52:43.454Z,1024.45
2022-12-03T08:53:43.647Z,1024.47
2022-12-03T08:54:43.819Z,1024.45
2022-12-03T08:55:43.976Z,1024.45
2022-12-03T08:56:44.135Z,1024.43
2022-12-03T08:57:44.310Z,1024.44
2022-12-03T08:58:44.476Z,1024.43
2022-12-03T08:59:45.822Z,1024.44
2022-12-03T09:00:44.881Z,1024.42
2022-12-03T09:01:45.043Z,1024.41
2022-12-03T09:02:45.125Z,1024.44
2022-12-03T09:03:45.376Z,1024.42
2022-12-03T09:04:45.502Z,1024.47
2022-12-03T09:05:45.649Z,1024.47
2022-12-03T09:06:45.797Z,1024.41
2022-12-03T09:07:46.034Z,1024.43
2022-12-03T09:08:46.143Z,1024.45
2022-12-03T09:09:46.319Z,1024.43
2022-12-03T09:10:46.468Z,1024.42
2022-12-03T09:11:46.642Z,1024.41
2022-12-03T09:12:46.833Z,1024.40
2022-12-03T09:13:47.011Z,1024.41
2022-12-03T09:14:47.200Z,1024.42
2022-12-03T09:15:47.352Z,1024.42
2022-12-03T09:16:47.571Z,1024.41
2022-12-03T09:17:47.706Z,1024.39
2022-12-03T09:18:48.064Z,1024.34
2022-12-03T09:19:48.060Z,1024.38
2022-12-03T09:20:48.243Z,1024.33
2022-12-03T09:21:48.383Z,1024.33
2022-12-03T09:22:48.559Z,1024.29
2022-12-03T09:23:48.782Z,1024.28
2022-12-03T09:24:48.900Z,1024.30
2022-12-03T09:25:49.059Z,1024.32
2022-12-03T09:26:49.233Z,1024.26
2022-12-03T09:27:49.411Z,1024.25
2022-12-03T09:28:49.597Z,1024.26
2022-12-03T09:29:49.781Z,1024.25
2022-12-03T09:30:49.932Z,1024.26
2022-12-03T09:31:50.177Z,1024.25
2022-12-03T09:32:50.602Z,1024.22
2022-12-03T09:33:50.452Z,1024.22
2022-12-03T09:34:50.613Z,1024.26
2022-12-03T09:35:50.775Z,1024.24
2022-12-03T09:36:50.919Z,1024.27
2022-12-03T09:37:51.130Z,1024.26
2022-12-03T09:38:51.277Z,1024.28
2022-12-03T09:39:51.456Z,1024.24
2022-12-03T09:40:51.635Z,1024.18
2022-12-03T09:41:51.812Z,1024.16
2022-12-03T09:42:52.007Z,1024.21
2022-12-03T09:44:10.910Z,1024.17
2022-12-03T09:44:53.542Z,1024.17
2022-12-03T09:45:52.551Z,1024.09
2022-12-03T09:46:52.643Z,1024.12
2022-12-03T09:47:52.836Z,1024.14
2022-12-03T09:48:52.994Z,1024.16
2022-12-03T09:49:53.353Z,1024.15
2022-12-03T09:50:53.307Z,1024.16
2022-12-03T09:51:53.494Z,1024.18
2022-12-03T09:52:53.664Z,1024.17
2022-12-03T09:53:53.818Z,1024.13
2022-12-03T09:54:54.446Z,1024.17
2022-12-03T09:55:54.175Z,1024.12
2022-12-03T09:56:54.361Z,1024.14
2022-12-03T09:57:54.564Z,1024.14
2022-12-03T09:58:54.703Z,1024.11
2022-12-03T09:59:55.075Z,1024.12
2022-12-03T10:00:55.062Z,1024.07
2022-12-03T10:01:55.248Z,1024.07
2022-12-03T10:02:55.395Z,1024.08
2022-12-03T10:03:55.558Z,1024.05
2022-12-03T10:04:55.965Z,1024.04
2022-12-03T10:05:55.897Z,1024.02
2022-12-03T10:06:56.057Z,1024.00
2022-12-03T10:07:56.482Z,1024.02
2022-12-03T10:08:56.386Z,1024.02
2022-12-03T10:09:56.854Z,1023.95
2022-12-03T10:10:56.750Z,1023.97
2022-12-03T10:11:56.888Z,1024.00
2022-12-03T10:12:57.079Z,1024.00
2022-12-03T10:13:57.212Z,1023.94
2022-12-03T10:14:57.529Z,1023.96
2022-12-03T10:15:57.533Z,1023.98
2022-12-03T10:16:57.722Z,1023.98
2022-12-03T10:17:57.866Z,1024.00
2022-12-03T10:18:58.017Z,1023.98
2022-12-03T10:19:58.195Z,1024.01
2022-12-03T10:20:58.339Z,1023.93
2022-12-03T10:21:58.526Z,1023.97
2022-12-03T10:22:58.711Z,1023.95
2022-12-03T10:23:58.883Z,1023.95
2022-12-03T10:24:59.039Z,1023.94
2022-12-03T10:25:59.211Z,1023.89
2022-12-03T10:26:59.370Z,1023.90
2022-12-03T10:27:59.561Z,1023.90
2022-12-03T10:28:59.719Z,1023.88
2022-12-03T10:29:59.881Z,1023.83
2022-12-03T10:31:00.127Z,1023.83
2022-12-03T10:32:00.229Z,1023.82
2022-12-03T10:33:00.383Z,1023.84
2022-12-03T10:34:00.542Z,1023.83
2022-12-03T10:35:00.710Z,1023.80
2022-12-03T10:36:00.872Z,1023.82
2022-12-03T10:37:01.178Z,1023.83
2022-12-03T10:38:01.203Z,1023.79
2022-12-03T10:39:01.362Z,1023.78
2022-12-03T10:40:01.554Z,1023.80
2022-12-03T10:41:01.704Z,1023.84
2022-12-03T10:42:01.853Z,1023.83
2022-12-03T10:43:02.013Z,1023.84
2022-12-03T10:44:02.184Z,1023.83
2022-12-03T10:45:02.352Z,1023.88
2022-12-03T10:46:04.506Z,1023.84
2022-12-03T10:47:02.746Z,1023.84
2022-12-03T10:48:02.846Z,1023.82
2022-12-03T10:49:02.995Z,1023.80
2022-12-03T10:50:03.173Z,1023.81
2022-12-03T10:51:03.345Z,1023.79
2022-12-03T10:52:03.495Z,1023.80
2022-12-03T10:53:03.666Z,1023.79
2022-12-03T10:54:03.829Z,1023.80
2022-12-03T10:55:04.024Z,1023.77
2022-12-03T10:56:04.203Z,1023.82
2022-12-03T10:57:04.350Z,1023.80
2022-12-03T10:58:04.519Z,1023.84
2022-12-03T10:59:04.680Z,1023.83
2022-12-03T11:00:04.845Z,1023.86
2022-12-03T11:01:05.152Z,1023.78
2022-12-03T11:02:05.270Z,1023.81
2022-12-03T11:03:05.420Z,1023.84
2022-12-03T11:04:05.635Z,1023.82
2022-12-03T11:05:05.697Z,1023.85
2022-12-03T11:06:05.887Z,1023.77
2022-12-03T11:07:06.047Z,1023.82
2022-12-03T11:08:06.262Z,1023.82
2022-12-03T11:09:09.092Z,1023.77
2022-12-03T11:10:06.579Z,1023.80
2022-12-03T11:11:06.783Z,1023.78
2022-12-03T11:12:06.948Z,1023.79
2022-12-03T11:13:07.126Z,1023.78
2022-12-03T11:14:07.287Z,1023.78
2022-12-03T11:15:07.453Z,1023.80
2022-12-03T11:16:07.713Z,1023.75
2022-12-03T11:17:07.800Z,1023.77
2022-12-03T11:18:07.949Z,1023.77
2022-12-03T11:19:08.108Z,1023.74
2022-12-03T11:20:08.279Z,1023.70
2022-12-03T11:21:08.520Z,1023.69
2022-12-03T11:22:08.631Z,1023.69
2022-12-03T11:23:08.795Z,1023.71
2022-12-03T11:24:08.956Z,1023.65
2022-12-03T11:25:09.114Z,1023.64
2022-12-03T11:26:12.018Z,1023.59
2022-12-03T11:27:10.441Z,1023.57
2022-12-03T11:28:09.630Z,1023.56
2022-12-03T11:29:09.782Z,1023.54
2022-12-03T11:30:09.953Z,1023.53
2022-12-03T11:31:10.235Z,1023.52
2022-12-03T11:32:10.302Z,1023.51
2022-12-03T11:33:10.464Z,1023.48
2022-12-03T11:34:10.632Z,1023.52
2022-12-03T11:35:10.785Z,1023.47
2022-12-03T11:36:10.975Z,1023.46
2022-12-03T11:37:11.160Z,1023.46
2022-12-03T11:38:11.306Z,1023.43
2022-12-03T11:39:11.470Z,1023.44
2022-12-03T11:40:11.642Z,1023.44
2022-12-03T11:41:11.820Z,1023.40
2022-12-03T11:42:11.993Z,1023.39
2022-12-03T11:43:12.162Z,1023.40
2022-12-03T11:44:12.317Z,1023.39
2022-12-03T11:45:12.478Z,1023.41
2022-12-03T11:46:12.747Z,1023.38
2022-12-03T11:47:12.843Z,1023.39
2022-12-03T11:48:13.022Z,1023.40
2022-12-03T11:49:13.208Z,1023.37
2022-12-03T11:50:13.384Z,1023.34
2022-12-03T11:51:13.585Z,1023.35
2022-12-03T11:52:13.743Z,1023.38
2022-12-03T11:53:13.893Z,1023.35
2022-12-03T11:54:14.075Z,1023.36
2022-12-03T11:55:14.257Z,1023.31
2022-12-03T11:56:14.457Z,1023.28
2022-12-03T11:57:14.597Z,1023.30
2022-12-03T11:58:14.775Z,1023.25
2022-12-03T11:59:14.963Z,1023.25
2022-12-03T12:00:15.200Z,1023.25
2022-12-03T12:01:15.327Z,1023.27
2022-12-03T12:02:15.507Z,1023.28
2022-12-03T12:03:15.871Z,1023.32
2022-12-03T12:04:15.990Z,1023.23
2022-12-03T12:05:16.051Z,1023.28
2022-12-03T12:06:16.232Z,1023.28
2022-12-03T12:07:16.509Z,1023.31